sensor_id;sensor_type;location;lat;lon;timestamp;pressure;altitude;pressure_sealevel;temperature;humidity
21730;BME280;11027;51.030;13.812;2023-08-01T00:00:12;99038.06;;;20.55;66.49
21730;BME280;11027;51.030;13.812;2023-08-01T00:02:40;99032.78;;;20.54;66.78
21730;BME280;11027;51.030;13.812;2023-08-01T00:05:07;99024.78;;;20.52;67.04
21730;BME280;11027;51.030;13.812;2023-08-01T00:07:33;99018.72;;;20.50;67.30
21730;BME280;11027;51.030;13.812;2023-08-01T00:09:58;99015.66;;;20.47;67.74
21730;BME280;11027;51.030;13.812;2023-08-01T00:12:24;99009.81;;;20.43;68.22
21730;BME280;11027;51.030;13.812;2023-08-01T00:14:49;99006.50;;;20.41;68.69
21730;BME280;11027;51.030;13.812;2023-08-01T00:17:14;99004.88;;;20.40;69.16
21730;BME280;11027;51.030;13.812;2023-08-01T00:19:40;98991.00;;;20.35;69.62
21730;BME280;11027;51.030;13.812;2023-08-01T00:22:05;98980.47;;;20.32;70.01
21730;BME280;11027;51.030;13.812;2023-08-01T00:24:30;98981.88;;;20.29;69.56
21730;BME280;11027;51.030;13.812;2023-08-01T00:26:55;98973.84;;;20.28;69.56
21730;BME280;11027;51.030;13.812;2023-08-01T00:29:21;98971.63;;;20.30;69.19
21730;BME280;11027;51.030;13.812;2023-08-01T00:31:47;98971.63;;;20.30;69.40
21730;BME280;11027;51.030;13.812;2023-08-01T00:34:12;98969.97;;;20.29;69.34
21730;BME280;11027;51.030;13.812;2023-08-01T00:36:37;98954.47;;;20.28;69.39
21730;BME280;11027;51.030;13.812;2023-08-01T00:39:02;98955.59;;;20.27;68.92
21730;BME280;11027;51.030;13.812;2023-08-01T00:41:28;98953.38;;;20.24;68.73
21730;BME280;11027;51.030;13.812;2023-08-01T00:43:53;98945.06;;;20.24;68.87
21730;BME280;11027;51.030;13.812;2023-08-01T00:46:18;98945.06;;;20.24;68.84
21730;BME280;11027;51.030;13.812;2023-08-01T00:48:44;98935.69;;;20.25;68.77
21730;BME280;11027;51.030;13.812;2023-08-01T00:51:09;98938.44;;;20.25;68.08
21730;BME280;11027;51.030;13.812;2023-08-01T00:53:37;98926.84;;;20.23;67.78
21730;BME280;11027;51.030;13.812;2023-08-01T00:56:03;98921.31;;;20.23;67.27
21730;BME280;11027;51.030;13.812;2023-08-01T00:58:28;98915.78;;;20.23;67.47
21730;BME280;11027;51.030;13.812;2023-08-01T01:00:54;98924.63;;;20.25;66.95
21730;BME280;11027;51.030;13.812;2023-08-01T01:03:20;98922.94;;;20.24;66.99
21730;BME280;11027;51.030;13.812;2023-08-01T01:05:52;98913.56;;;20.25;66.87
21730;BME280;11027;51.030;13.812;2023-08-01T01:08:19;98914.13;;;20.27;66.70
21730;BME280;11027;51.030;13.812;2023-08-01T01:10:45;98901.66;;;20.29;66.64
21730;BME280;11027;51.030;13.812;2023-08-01T01:13:10;98899.72;;;20.30;66.68
21730;BME280;11027;51.030;13.812;2023-08-01T01:15:35;98895.88;;;20.31;66.97
21730;BME280;11027;51.030;13.812;2023-08-01T01:18:00;98901.41;;;20.31;66.52
21730;BME280;11027;51.030;13.812;2023-08-01T01:20:26;98885.34;;;20.28;67.08
21730;BME280;11027;51.030;13.812;2023-08-01T01:22:54;98883.72;;;20.27;67.29
21730;BME280;11027;51.030;13.812;2023-08-01T01:25:21;98876.50;;;20.26;67.30
21730;BME280;11027;51.030;13.812;2023-08-01T01:27:49;98880.91;;;20.22;67.26
21730;BME280;11027;51.030;13.812;2023-08-01T01:30:15;98877.59;;;20.19;67.04
21730;BME280;11027;51.030;13.812;2023-08-01T01:32:40;98875.97;;;20.18;67.13
21730;BME280;11027;51.030;13.812;2023-08-01T01:35:05;98876.22;;;20.17;67.12
21730;BME280;11027;51.030;13.812;2023-08-01T01:37:31;98877.03;;;20.17;67.16
21730;BME280;11027;51.030;13.812;2023-08-01T01:39:57;98883.97;;;20.15;66.90
21730;BME280;11027;51.030;13.812;2023-08-01T01:42:22;98875.66;;;20.15;66.73
21730;BME280;11027;51.030;13.812;2023-08-01T01:44:47;98872.09;;;20.14;65.55
21730;BME280;11027;51.030;13.812;2023-08-01T01:47:13;98870.97;;;20.15;64.92
21730;BME280;11027;51.030;13.812;2023-08-01T01:49:38;98861.59;;;20.16;64.60
21730;BME280;11027;51.030;13.812;2023-08-01T01:52:03;98857.69;;;20.17;64.31
21730;BME280;11027;51.030;13.812;2023-08-01T01:54:29;98849.97;;;20.19;64.33
21730;BME280;11027;51.030;13.812;2023-08-01T01:56:54;98849.41;;;20.23;64.21
21730;BME280;11027;51.030;13.812;2023-08-01T01:59:19;98851.63;;;20.26;63.71
21730;BME280;11027;51.030;13.812;2023-08-01T02:01:44;98861.59;;;20.27;63.74
21730;BME280;11027;51.030;13.812;2023-08-01T02:04:10;98859.34;;;20.24;63.77
21730;BME280;11027;51.030;13.812;2023-08-01T02:06:35;98859.38;;;20.18;64.38
21730;BME280;11027;51.030;13.812;2023-08-01T02:09:00;98852.19;;;20.12;64.90
21730;BME280;11027;51.030;13.812;2023-08-01T02:11:25;98855.47;;;20.09;65.81
21730;BME280;11027;51.030;13.812;2023-08-01T02:13:51;98865.72;;;20.04;67.09
21730;BME280;11027;51.030;13.812;2023-08-01T02:16:16;98856.03;;;19.96;68.18
21730;BME280;11027;51.030;13.812;2023-08-01T02:18:41;98852.97;;;19.87;68.91
21730;BME280;11027;51.030;13.812;2023-08-01T02:21:06;98853.22;;;19.81;69.60
21730;BME280;11027;51.030;13.812;2023-08-01T02:23:32;98845.47;;;19.72;70.08
21730;BME280;11027;51.030;13.812;2023-08-01T02:26:01;98844.88;;;19.65;71.23
21730;BME280;11027;51.030;13.812;2023-08-01T02:28:26;98838.78;;;19.58;71.51
21730;BME280;11027;51.030;13.812;2023-08-01T02:30:51;98836.56;;;19.55;71.65
21730;BME280;11027;51.030;13.812;2023-08-01T02:33:17;98824.97;;;19.48;72.20
21730;BME280;11027;51.030;13.812;2023-08-01T02:35:42;98821.06;;;19.49;72.80
21730;BME280;11027;51.030;13.812;2023-08-01T02:38:07;98822.19;;;19.48;72.89
21730;BME280;11027;51.030;13.812;2023-08-01T02:40:32;98812.78;;;19.49;73.13
21730;BME280;11027;51.030;13.812;2023-08-01T02:42:58;98806.44;;;19.48;73.00
21730;BME280;11027;51.030;13.812;2023-08-01T02:45:23;98812.78;;;19.49;73.43
21730;BME280;11027;51.030;13.812;2023-08-01T02:47:48;98799.28;;;19.47;73.85
21730;BME280;11027;51.030;13.812;2023-08-01T02:50:13;98800.09;;;19.48;74.30
21730;BME280;11027;51.030;13.812;2023-08-01T02:52:39;98791.25;;;19.46;74.37
21730;BME280;11027;51.030;13.812;2023-08-01T02:55:05;98786.84;;;19.50;74.28
21730;BME280;11027;51.030;13.812;2023-08-01T02:57:30;98785.47;;;19.52;74.47
21730;BME280;11027;51.030;13.812;2023-08-01T02:59:55;98784.09;;;19.55;74.68
21730;BME280;11027;51.030;13.812;2023-08-01T03:02:21;98771.69;;;19.57;74.72
21730;BME280;11027;51.030;13.812;2023-08-01T03:04:46;98770.28;;;19.55;75.52
21730;BME280;11027;51.030;13.812;2023-08-01T03:07:12;98771.38;;;19.54;76.02
21730;BME280;11027;51.030;13.812;2023-08-01T03:09:37;98764.75;;;19.50;76.66
21730;BME280;11027;51.030;13.812;2023-08-01T03:12:03;98754.25;;;19.47;77.09
21730;BME280;11027;51.030;13.812;2023-08-01T03:14:28;98757.31;;;19.45;77.85
21730;BME280;11027;51.030;13.812;2023-08-01T03:16:53;98741.00;;;19.44;78.33
21730;BME280;11027;51.030;13.812;2023-08-01T03:19:19;98745.97;;;19.42;78.46
21730;BME280;11027;51.030;13.812;2023-08-01T03:21:44;98742.66;;;19.39;78.75
21730;BME280;11027;51.030;13.812;2023-08-01T03:24:09;98732.44;;;19.40;78.90
21730;BME280;11027;51.030;13.812;2023-08-01T03:26:35;98731.59;;;19.39;78.96
21730;BME280;11027;51.030;13.812;2023-08-01T03:29:01;98732.13;;;19.36;79.36
21730;BME280;11027;51.030;13.812;2023-08-01T03:31:27;98719.97;;;19.32;79.75
21730;BME280;11027;51.030;13.812;2023-08-01T03:33:52;98713.34;;;19.28;80.01
21730;BME280;11027;51.030;13.812;2023-08-01T03:36:17;98702.88;;;19.25;80.22
21730;BME280;11027;51.030;13.812;2023-08-01T03:38:43;98701.19;;;19.24;80.58
21730;BME280;11027;51.030;13.812;2023-08-01T03:41:08;98693.19;;;19.23;80.70
21730;BME280;11027;51.030;13.812;2023-08-01T03:43:33;98676.63;;;19.23;80.65
21730;BME280;11027;51.030;13.812;2023-08-01T03:45:59;98693.47;;;19.21;80.75
21730;BME280;11027;51.030;13.812;2023-08-01T03:48:24;98701.75;;;19.21;80.75
21730;BME280;11027;51.030;13.812;2023-08-01T03:50:49;98699.00;;;19.21;80.28
21730;BME280;11027;51.030;13.812;2023-08-01T03:53:15;98687.66;;;19.23;80.42
21730;BME280;11027;51.030;13.812;2023-08-01T03:55:40;98684.63;;;19.24;80.19
21730;BME280;11027;51.030;13.812;2023-08-01T03:58:05;98685.19;;;19.26;80.49
21730;BME280;11027;51.030;13.812;2023-08-01T04:00:31;98682.44;;;19.26;80.12
21730;BME280;11027;51.030;13.812;2023-08-01T04:02:58;98676.91;;;19.26;80.20
21730;BME280;11027;51.030;13.812;2023-08-01T04:05:23;98674.69;;;19.28;80.28
21730;BME280;11027;51.030;13.812;2023-08-01T04:07:49;98668.34;;;19.28;80.29
21730;BME280;11027;51.030;13.812;2023-08-01T04:10:14;98667.53;;;19.27;80.15
21730;BME280;11027;51.030;13.812;2023-08-01T04:12:40;98674.69;;;19.28;80.28
21730;BME280;11027;51.030;13.812;2023-08-01T04:15:07;98665.31;;;19.29;80.35
21730;BME280;11027;51.030;13.812;2023-08-01T04:17:32;98669.47;;;19.32;80.13
21730;BME280;11027;51.030;13.812;2023-08-01T04:19:58;98658.16;;;19.33;79.76
21730;BME280;11027;51.030;13.812;2023-08-01T04:22:23;98649.00;;;19.33;79.56
21730;BME280;11027;51.030;13.812;2023-08-01T04:24:48;98648.75;;;19.34;79.83
21730;BME280;11027;51.030;13.812;2023-08-01T04:27:13;98649.88;;;19.33;79.51
21730;BME280;11027;51.030;13.812;2023-08-01T04:29:39;98644.91;;;19.35;79.37
21730;BME280;11027;51.030;13.812;2023-08-01T04:32:04;98638.81;;;19.33;79.69
21730;BME280;11027;51.030;13.812;2023-08-01T04:34:29;98645.69;;;19.31;79.56
21730;BME280;11027;51.030;13.812;2023-08-01T04:36:55;98637.16;;;19.32;79.87
21730;BME280;11027;51.030;13.812;2023-08-01T04:39:20;98636.06;;;19.33;79.85
21730;BME280;11027;51.030;13.812;2023-08-01T04:41:45;98633.31;;;19.33;79.68
21730;BME280;11027;51.030;13.812;2023-08-01T04:44:11;98629.69;;;19.33;79.74
21730;BME280;11027;51.030;13.812;2023-08-01T04:46:36;98625.56;;;19.35;79.55
21730;BME280;11027;51.030;13.812;2023-08-01T04:49:01;98621.16;;;19.39;79.34
21730;BME280;11027;51.030;13.812;2023-08-01T04:51:26;98613.44;;;19.42;79.85
21730;BME280;11027;51.030;13.812;2023-08-01T04:53:52;98603.47;;;19.46;79.53
21730;BME280;11027;51.030;13.812;2023-08-01T04:56:17;98605.41;;;19.50;79.36
21730;BME280;11027;51.030;13.812;2023-08-01T04:58:42;98605.13;;;19.52;79.41
21730;BME280;11027;51.030;13.812;2023-08-01T05:01:08;98604.00;;;19.53;79.50
21730;BME280;11027;51.030;13.812;2023-08-01T05:03:33;98593.81;;;19.53;79.65
21730;BME280;11027;51.030;13.812;2023-08-01T05:05:58;98598.50;;;19.53;79.69
21730;BME280;11027;51.030;13.812;2023-08-01T05:08:23;98594.09;;;19.52;79.76
21730;BME280;11027;51.030;13.812;2023-08-01T05:10:49;98583.59;;;19.54;80.14
21730;BME280;11027;51.030;13.812;2023-08-01T05:13:14;98578.06;;;19.54;80.22
21730;BME280;11027;51.030;13.812;2023-08-01T05:15:39;98585.22;;;19.55;80.22
21730;BME280;11027;51.030;13.812;2023-08-01T05:18:04;98585.22;;;19.55;80.07
21730;BME280;11027;51.030;13.812;2023-08-01T05:20:30;98578.06;;;19.54;80.45
21730;BME280;11027;51.030;13.812;2023-08-01T05:22:59;98573.38;;;19.54;80.44
21730;BME280;11027;51.030;13.812;2023-08-01T05:25:25;98567.56;;;19.51;80.78
21730;BME280;11027;51.030;13.812;2023-08-01T05:27:50;98568.69;;;19.50;81.02
21730;BME280;11027;51.030;13.812;2023-08-01T05:30:15;98569.78;;;19.49;81.74
21730;BME280;11027;51.030;13.812;2023-08-01T05:32:41;98570.34;;;19.46;81.73
21730;BME280;11027;51.030;13.812;2023-08-01T05:35:08;98562.59;;;19.43;82.01
21730;BME280;11027;51.030;13.812;2023-08-01T05:37:33;98566.47;;;19.42;82.42
21730;BME280;11027;51.030;13.812;2023-08-01T05:39:59;98568.69;;;19.39;82.53
21730;BME280;11027;51.030;13.812;2023-08-01T05:42:24;98570.34;;;19.35;82.75
21730;BME280;11027;51.030;13.812;2023-08-01T05:44:49;98563.97;;;19.35;82.70
21730;BME280;11027;51.030;13.812;2023-08-01T05:47:14;98563.16;;;19.34;82.77
21730;BME280;11027;51.030;13.812;2023-08-01T05:49:40;98553.22;;;19.38;83.00
21730;BME280;11027;51.030;13.812;2023-08-01T05:52:06;98555.72;;;19.40;83.30
21730;BME280;11027;51.030;13.812;2023-08-01T05:54:32;98548.78;;;19.43;82.91
21730;BME280;11027;51.030;13.812;2023-08-01T05:56:57;98545.22;;;19.47;83.54
21730;BME280;11027;51.030;13.812;2023-08-01T05:59:23;98541.63;;;19.52;83.58
21730;BME280;11027;51.030;13.812;2023-08-01T06:01:48;98542.72;;;19.56;83.92
21730;BME280;11027;51.030;13.812;2023-08-01T06:04:13;98541.03;;;19.55;84.44
21730;BME280;11027;51.030;13.812;2023-08-01T06:06:38;98536.63;;;19.59;84.30
21730;BME280;11027;51.030;13.812;2023-08-01T06:09:04;98529.16;;;19.65;84.70
21730;BME280;11027;51.030;13.812;2023-08-01T06:11:29;98529.97;;;19.70;84.35
21730;BME280;11027;51.030;13.812;2023-08-01T06:13:54;98526.69;;;19.73;84.39
21730;BME280;11027;51.030;13.812;2023-08-01T06:16:20;98518.66;;;19.77;83.81
21730;BME280;11027;51.030;13.812;2023-08-01T06:18:45;98530.25;;;19.79;83.89
21730;BME280;11027;51.030;13.812;2023-08-01T06:21:10;98527.22;;;19.81;83.88
21730;BME280;11027;51.030;13.812;2023-08-01T06:23:35;98520.56;;;19.87;84.06
21730;BME280;11027;51.030;13.812;2023-08-01T06:26:01;98513.34;;;19.91;83.82
21730;BME280;11027;51.030;13.812;2023-08-01T06:28:26;98518.59;;;19.92;83.73
21730;BME280;11027;51.030;13.812;2023-08-01T06:30:51;98526.09;;;19.92;83.75
21730;BME280;11027;51.030;13.812;2023-08-01T06:33:17;98520.00;;;19.90;83.67
21730;BME280;11027;51.030;13.812;2023-08-01T06:35:42;98517.25;;;19.85;83.93
21730;BME280;11027;51.030;13.812;2023-08-01T06:38:07;98520.03;;;19.80;83.97
21730;BME280;11027;51.030;13.812;2023-08-01T06:40:32;98524.47;;;19.75;84.04
21730;BME280;11027;51.030;13.812;2023-08-01T06:42:58;98525.03;;;19.72;84.03
21730;BME280;11027;51.030;13.812;2023-08-01T06:45:23;98526.66;;;19.68;83.30
21730;BME280;11027;51.030;13.812;2023-08-01T06:47:48;98526.66;;;19.68;83.06
21730;BME280;11027;51.030;13.812;2023-08-01T06:50:14;98534.44;;;19.71;81.95
21730;BME280;11027;51.030;13.812;2023-08-01T06:52:40;98526.16;;;19.71;81.16
21730;BME280;11027;51.030;13.812;2023-08-01T06:55:05;98520.88;;;19.70;80.95
21730;BME280;11027;51.030;13.812;2023-08-01T06:57:31;98519.50;;;19.72;80.65
21730;BME280;11027;51.030;13.812;2023-08-01T06:59:56;98522.81;;;19.74;80.57
21730;BME280;11027;51.030;13.812;2023-08-01T07:02:21;98515.06;;;19.76;80.25
21730;BME280;11027;51.030;13.812;2023-08-01T07:04:47;98518.91;;;19.81;80.01
21730;BME280;11027;51.030;13.812;2023-08-01T07:07:12;98522.22;;;19.88;79.74
21730;BME280;11027;51.030;13.812;2023-08-01T07:09:38;98524.09;;;19.97;79.48
21730;BME280;11027;51.030;13.812;2023-08-01T07:12:03;98519.66;;;20.07;78.76
21730;BME280;11027;51.030;13.812;2023-08-01T07:14:29;98522.09;;;20.13;78.66
21730;BME280;11027;51.030;13.812;2023-08-01T07:16:54;98521.00;;;20.14;78.44
21730;BME280;11027;51.030;13.812;2023-08-01T07:19:19;98522.66;;;20.15;78.25
21730;BME280;11027;51.030;13.812;2023-08-01T07:21:44;98518.78;;;20.16;77.98
21730;BME280;11027;51.030;13.812;2023-08-01T07:24:11;98516.84;;;20.22;78.13
21730;BME280;11027;51.030;13.812;2023-08-01T07:26:38;98513.47;;;20.30;77.83
21730;BME280;11027;51.030;13.812;2023-08-01T07:29:04;98508.69;;;20.41;77.93
21730;BME280;11027;51.030;13.812;2023-08-01T07:31:29;98509.44;;;20.57;77.40
21730;BME280;11027;51.030;13.812;2023-08-01T07:33:55;98508.53;;;20.72;77.16
21730;BME280;11027;51.030;13.812;2023-08-01T07:36:20;98517.88;;;20.81;76.32
21730;BME280;11027;51.030;13.812;2023-08-01T07:38:46;98511.19;;;20.87;75.96
21730;BME280;11027;51.030;13.812;2023-08-01T07:41:12;98507.28;;;20.88;75.56
21730;BME280;11027;51.030;13.812;2023-08-01T07:43:37;98516.72;;;20.87;74.95
21730;BME280;11027;51.030;13.812;2023-08-01T07:46:02;98515.66;;;20.83;74.43
21730;BME280;11027;51.030;13.812;2023-08-01T07:48:28;98509.59;;;20.76;73.79
21730;BME280;11027;51.030;13.812;2023-08-01T07:50:53;98514.06;;;20.72;73.70
21730;BME280;11027;51.030;13.812;2023-08-01T07:53:19;98515.75;;;20.68;73.26
21730;BME280;11027;51.030;13.812;2023-08-01T07:55:44;98528.75;;;20.67;73.08
21730;BME280;11027;51.030;13.812;2023-08-01T07:58:09;98518.50;;;20.68;72.89
21730;BME280;11027;51.030;13.812;2023-08-01T08:00:35;98520.66;;;20.76;73.18
21730;BME280;11027;51.030;13.812;2023-08-01T08:03:00;98517.28;;;20.84;73.28
21730;BME280;11027;51.030;13.812;2023-08-01T08:05:26;98520.03;;;20.89;73.11
21730;BME280;11027;51.030;13.812;2023-08-01T08:07:51;98516.66;;;20.92;72.61
21730;BME280;11027;51.030;13.812;2023-08-01T08:10:16;98509.69;;;21.00;72.30
21730;BME280;11027;51.030;13.812;2023-08-01T08:12:41;98516.31;;;21.04;72.37
21730;BME280;11027;51.030;13.812;2023-08-01T08:15:07;98517.06;;;21.15;72.20
21730;BME280;11027;51.030;13.812;2023-08-01T08:17:32;98512.81;;;21.23;71.22
21730;BME280;11027;51.030;13.812;2023-08-01T08:19:58;98529.69;;;21.26;70.91
21730;BME280;11027;51.030;13.812;2023-08-01T08:22:23;98508.56;;;21.35;70.54
21730;BME280;11027;51.030;13.812;2023-08-01T08:24:49;98494.66;;;21.41;70.41
21730;BME280;11027;51.030;13.812;2023-08-01T08:27:15;98502.88;;;21.51;69.84
21730;BME280;11027;51.030;13.812;2023-08-01T08:29:40;98491.22;;;21.54;69.68
21730;BME280;11027;51.030;13.812;2023-08-01T08:32:06;98490.63;;;21.57;69.33
21730;BME280;11027;51.030;13.812;2023-08-01T08:34:31;98479.09;;;21.50;68.93
21730;BME280;11027;51.030;13.812;2023-08-01T08:36:56;98476.03;;;21.51;69.50
21730;BME280;11027;51.030;13.812;2023-08-01T08:39:22;98481.84;;;21.50;69.02
21730;BME280;11027;51.030;13.812;2023-08-01T08:41:51;98487.09;;;21.51;69.00
21730;BME280;11027;51.030;13.812;2023-08-01T08:44:18;98482.97;;;21.49;69.25
21730;BME280;11027;51.030;13.812;2023-08-01T08:46:51;98491.22;;;21.54;68.85
21730;BME280;11027;51.030;13.812;2023-08-01T08:49:17;98503.94;;;21.55;68.93
21730;BME280;11027;51.030;13.812;2023-08-01T08:51:45;98499.81;;;21.52;68.31
21730;BME280;11027;51.030;13.812;2023-08-01T08:54:11;98495.94;;;21.53;68.87
21730;BME280;11027;51.030;13.812;2023-08-01T08:56:37;98491.47;;;21.57;68.97
21730;BME280;11027;51.030;13.812;2023-08-01T08:59:03;98502.31;;;21.54;67.78
21730;BME280;11027;51.030;13.812;2023-08-01T09:01:29;98489.56;;;21.53;68.03
21730;BME280;11027;51.030;13.812;2023-08-01T09:03:56;98488.50;;;21.49;68.58
21730;BME280;11027;51.030;13.812;2023-08-01T09:06:30;98495.69;;;21.50;68.39
21730;BME280;11027;51.030;13.812;2023-08-01T09:09:09;98489.34;;;21.49;67.71
21730;BME280;11027;51.030;13.812;2023-08-01T09:11:48;98465.16;;;21.55;67.47
21730;BME280;11027;51.030;13.812;2023-08-01T09:14:14;98469.53;;;21.61;67.57
21730;BME280;11027;51.030;13.812;2023-08-01T09:16:41;98467.88;;;21.60;67.23
21730;BME280;11027;51.030;13.812;2023-08-01T09:19:06;98463.44;;;21.59;67.13
21730;BME280;11027;51.030;13.812;2023-08-01T09:21:33;98480.03;;;21.64;67.37
21730;BME280;11027;51.030;13.812;2023-08-01T09:24:10;98453.03;;;21.51;66.82
21730;BME280;11027;51.030;13.812;2023-08-01T09:26:36;98442.88;;;21.41;67.37
21730;BME280;11027;51.030;13.812;2023-08-01T09:29:02;98460.44;;;21.26;67.62
21730;BME280;11027;51.030;13.812;2023-08-01T09:31:32;98456.88;;;21.26;68.30
21730;BME280;11027;51.030;13.812;2023-08-01T09:33:59;98465.47;;;21.24;68.21
21730;BME280;11027;51.030;13.812;2023-08-01T09:36:24;98445.91;;;21.15;68.87
21730;BME280;11027;51.030;13.812;2023-08-01T09:38:51;98440.09;;;21.12;68.67
21730;BME280;11027;51.030;13.812;2023-08-01T09:41:20;98412.19;;;21.08;68.69
21730;BME280;11027;51.030;13.812;2023-08-01T09:43:49;98406.66;;;21.08;68.26
21730;BME280;11027;51.030;13.812;2023-08-01T09:46:14;98408.31;;;21.09;67.33
21730;BME280;11027;51.030;13.812;2023-08-01T09:48:40;98429.56;;;21.14;67.40
21730;BME280;11027;51.030;13.812;2023-08-01T09:51:14;98428.41;;;21.20;67.10
21730;BME280;11027;51.030;13.812;2023-08-01T09:53:56;98432.75;;;21.26;66.46
21730;BME280;11027;51.030;13.812;2023-08-01T09:56:26;98417.69;;;21.37;66.29
21730;BME280;11027;51.030;13.812;2023-08-01T09:58:53;98416.78;;;21.47;65.98
21730;BME280;11027;51.030;13.812;2023-08-01T10:01:20;98419.25;;;21.49;65.48
21730;BME280;11027;51.030;13.812;2023-08-01T10:03:48;98401.53;;;21.50;65.01
21730;BME280;11027;51.030;13.812;2023-08-01T10:06:24;98411.78;;;21.49;64.46
21730;BME280;11027;51.030;13.812;2023-08-01T10:08:51;98417.00;;;21.51;63.99
21730;BME280;11027;51.030;13.812;2023-08-01T10:11:19;98425.84;;;21.53;64.06
21730;BME280;11027;51.030;13.812;2023-08-01T10:13:45;98414.19;;;21.56;63.98
21730;BME280;11027;51.030;13.812;2023-08-01T10:16:13;98426.63;;;21.58;63.79
21730;BME280;11027;51.030;13.812;2023-08-01T10:18:40;98432.69;;;21.61;63.81
21730;BME280;11027;51.030;13.812;2023-08-01T10:21:10;98442.59;;;21.67;63.10
21730;BME280;11027;51.030;13.812;2023-08-01T10:23:37;98445.03;;;21.73;62.72
21730;BME280;11027;51.030;13.812;2023-08-01T10:26:04;98443.00;;;21.79;62.37
21730;BME280;11027;51.030;13.812;2023-08-01T10:28:31;98442.03;;;21.89;61.89
21730;BME280;11027;51.030;13.812;2023-08-01T10:31:15;98461.00;;;22.01;61.74
21730;BME280;11027;51.030;13.812;2023-08-01T10:33:43;98450.94;;;22.10;61.47
21730;BME280;11027;51.030;13.812;2023-08-01T10:36:18;98465.00;;;22.13;59.87
21730;BME280;11027;51.030;13.812;2023-08-01T10:38:51;98468.25;;;22.21;58.68
21730;BME280;11027;51.030;13.812;2023-08-01T10:41:29;98474.88;;;22.25;58.90
21730;BME280;11027;51.030;13.812;2023-08-01T10:44:11;98476.28;;;22.41;59.41
21730;BME280;11027;51.030;13.812;2023-08-01T10:47:00;98478.84;;;22.56;59.10
21730;BME280;11027;51.030;13.812;2023-08-01T10:49:37;98478.75;;;22.62;57.87
21730;BME280;11027;51.030;13.812;2023-08-01T10:52:04;98469.97;;;22.73;58.03
21730;BME280;11027;51.030;13.812;2023-08-01T10:54:40;98466.81;;;22.80;57.45
21730;BME280;11027;51.030;13.812;2023-08-01T10:57:06;98457.72;;;22.93;57.22
21730;BME280;11027;51.030;13.812;2023-08-01T10:59:32;98462.53;;;23.07;56.52
21730;BME280;11027;51.030;13.812;2023-08-01T11:01:58;98453.38;;;23.20;56.50
21730;BME280;11027;51.030;13.812;2023-08-01T11:04:24;98442.69;;;23.13;56.21
21730;BME280;11027;51.030;13.812;2023-08-01T11:06:51;98451.13;;;23.22;56.39
21730;BME280;11027;51.030;13.812;2023-08-01T11:09:22;98444.28;;;23.33;56.61
21730;BME280;11027;51.030;13.812;2023-08-01T11:11:51;98450.94;;;23.32;55.48
21730;BME280;11027;51.030;13.812;2023-08-01T11:14:19;98456.50;;;23.32;55.24
21730;BME280;11027;51.030;13.812;2023-08-01T11:16:45;98438.50;;;23.44;55.08
21730;BME280;11027;51.030;13.812;2023-08-01T11:19:27;98441.50;;;23.47;55.60
21730;BME280;11027;51.030;13.812;2023-08-01T11:21:54;98443.66;;;23.50;54.75
21730;BME280;11027;51.030;13.812;2023-08-01T11:24:21;98442.84;;;23.50;54.15
21730;BME280;11027;51.030;13.812;2023-08-01T11:26:49;98445.41;;;23.60;54.24
21730;BME280;11027;51.030;13.812;2023-08-01T11:29:15;98448.72;;;23.62;53.25
21730;BME280;11027;51.030;13.812;2023-08-01T11:31:41;98446.44;;;23.64;53.16
21730;BME280;11027;51.030;13.812;2023-08-01T11:34:07;98450.88;;;23.79;53.29
21730;BME280;11027;51.030;13.812;2023-08-01T11:36:35;98454.69;;;23.97;53.27
21730;BME280;11027;51.030;13.812;2023-08-01T11:39:00;98454.47;;;24.07;53.43
21730;BME280;11027;51.030;13.812;2023-08-01T11:41:26;98479.63;;;24.16;52.91
21730;BME280;11027;51.030;13.812;2023-08-01T11:43:52;98465.19;;;24.14;52.88
21730;BME280;11027;51.030;13.812;2023-08-01T11:46:20;98479.41;;;24.12;53.11
21730;BME280;11027;51.030;13.812;2023-08-01T11:48:46;98474.56;;;24.04;52.99
21730;BME280;11027;51.030;13.812;2023-08-01T11:51:17;98469.75;;;23.96;53.57
21730;BME280;11027;51.030;13.812;2023-08-01T11:53:43;98478.19;;;23.91;53.27
21730;BME280;11027;51.030;13.812;2023-08-01T11:56:08;98469.09;;;23.71;53.29
21730;BME280;11027;51.030;13.812;2023-08-01T11:58:41;98465.47;;;23.57;53.78
21730;BME280;11027;51.030;13.812;2023-08-01T12:01:11;98454.66;;;23.42;54.61
21730;BME280;11027;51.030;13.812;2023-08-01T12:03:53;98445.78;;;23.26;55.06
21730;BME280;11027;51.030;13.812;2023-08-01T12:06:21;98464.91;;;23.13;55.47
21730;BME280;11027;51.030;13.812;2023-08-01T12:08:51;98464.28;;;23.03;55.95
21730;BME280;11027;51.030;13.812;2023-08-01T12:11:28;98466.88;;;22.94;56.41
21730;BME280;11027;51.030;13.812;2023-08-01T12:16:38;98472.09;;;22.63;57.48
21730;BME280;11027;51.030;13.812;2023-08-01T12:19:04;98472.84;;;22.49;57.68
21730;BME280;11027;51.030;13.812;2023-08-01T12:21:31;98513.59;;;22.30;58.77
21730;BME280;11027;51.030;13.812;2023-08-01T12:23:56;98557.56;;;21.69;59.50
21730;BME280;11027;51.030;13.812;2023-08-01T12:26:22;98520.03;;;20.89;68.35
21730;BME280;11027;51.030;13.812;2023-08-01T12:28:48;98514.72;;;20.04;73.17
21730;BME280;11027;51.030;13.812;2023-08-01T12:31:20;98525.06;;;19.42;76.56
21730;BME280;11027;51.030;13.812;2023-08-01T12:33:46;98535.03;;;19.07;79.52
21730;BME280;11027;51.030;13.812;2023-08-01T12:36:13;98548.81;;;18.91;81.59
21730;BME280;11027;51.030;13.812;2023-08-01T12:38:38;98551.56;;;18.86;82.91
21730;BME280;11027;51.030;13.812;2023-08-01T12:41:04;98547.13;;;18.80;84.55
21730;BME280;11027;51.030;13.812;2023-08-01T12:43:29;98569.75;;;18.77;85.56
21730;BME280;11027;51.030;13.812;2023-08-01T12:45:54;98593.19;;;18.74;86.12
21730;BME280;11027;51.030;13.812;2023-08-01T12:48:24;98585.19;;;18.73;86.90